Time;durP1;ratioP1;P1;durP2;ratioP2;P2;SDS_P1;SDS_P2;PMS_P1;PMS_P2;Temp;Humidity;BMP_temperature;BMP_pressure;BME280_temperature;BME280_humidity;BME280_pressure;Samples;Min_cycle;Max_cycle;Signal;HPM_P1;HPM_P2
2021/05/06 00:14:44;;;;;;;3.53;1.30;;;;;;;10.27;100.00;97717.25;5052908;28;20231;-70
2021/05/06 00:31:32;;;;;;;1.40;0.90;;;;;;;9.81;100.00;97696.88;5052283;28;20229;-71
2021/05/06 00:33:59;;;;;;;1.57;0.90;;;;;;;10.00;100.00;97688.88;5048348;28;20294;-71
2021/05/06 00:36:26;;;;;;;2.07;0.90;;;;;;;10.14;100.00;97669.25;5052425;28;20251;-70
2021/05/06 00:38:55;;;;;;;1.80;1.00;;;;;;;10.20;100.00;97672.94;5044593;28;20840;-71
2021/05/06 00:41:40;;;;;;;2.10;1.00;;;;;;;10.23;100.00;97666.38;5047952;28;20674;-70
2021/05/06 00:55:10;;;;;;;1.43;1.00;;;;;;;9.93;100.00;97657.94;5051244;28;20237;-71
2021/05/06 00:57:44;;;;;;;2.10;1.40;;;;;;;10.19;100.00;97657.97;5050487;28;20204;-70
2021/05/06 01:03:08;;;;;;;2.37;1.20;;;;;;;10.10;100.00;97656.53;5029928;28;20208;-71
2021/05/06 01:05:38;;;;;;;1.57;0.97;;;;;;;10.34;98.88;97663.88;5044941;28;20213;-71
2021/05/06 01:08:11;;;;;;;3.87;1.17;;;;;;;10.25;100.00;97657.94;5048889;28;20207;-71
2021/05/06 01:10:56;;;;;;;1.30;0.90;;;;;;;9.92;100.00;97662.47;5051799;28;20776;-71
2021/05/06 01:13:26;;;;;;;2.20;0.90;;;;;;;10.02;100.00;97648.69;5046918;28;21173;-72
2021/05/06 01:15:54;;;;;;;2.97;1.10;;;;;;;10.24;100.00;97647.50;5051413;28;20293;-71
2021/05/06 01:18:21;;;;;;;1.57;1.07;;;;;;;10.02;100.00;97652.19;5052299;28;20239;-70
2021/05/06 01:20:52;;;;;;;1.30;1.03;;;;;;;10.36;100.00;97649.31;5046849;28;20227;-70
2021/05/06 01:23:19;;;;;;;3.53;1.30;;;;;;;9.96;100.00;97658.38;5046789;28;20215;-71
2021/05/06 01:25:52;;;;;;;1.47;1.10;;;;;;;10.13;100.00;97651.59;5052124;28;20262;-70
2021/05/06 01:28:21;;;;;;;3.90;1.13;;;;;;;9.95;99.39;97647.91;5044429;28;20689;-71
2021/05/06 01:30:52;;;;;;;2.30;0.90;;;;;;;10.29;97.89;97656.50;5051608;28;20227;-71
2021/05/06 01:33:26;;;;;;;2.20;1.07;;;;;;;10.05;98.56;97651.00;5043806;28;20673;-71
2021/05/06 01:35:56;;;;;;;4.47;1.10;;;;;;;10.10;99.59;97643.22;5047374;28;20212;-70
2021/05/06 01:44:02;;;;;;;5.00;1.10;;;;;;;10.13;95.76;97653.44;5044539;28;20676;-71
2021/05/06 01:57:39;;;;;;;5.50;1.47;;;;;;;10.17;95.58;97645.88;5049948;28;20245;-71
2021/05/06 02:00:12;;;;;;;3.00;1.00;;;;;;;10.14;94.32;97647.91;5047468;28;20249;-71
2021/05/06 02:02:38;;;;;;;1.20;1.00;;;;;;;10.46;92.27;97643.56;5050682;28;20218;-71
2021/05/06 02:05:06;;;;;;;3.83;1.33;;;;;;;10.44;92.96;97641.09;5050319;28;20730;-70
2021/05/06 02:07:37;;;;;;;1.73;1.10;;;;;;;10.35;92.09;97644.19;5045255;28;20805;-71
2021/05/06 02:10:05;;;;;;;5.03;1.00;;;;;;;10.40;91.20;97639.84;5048498;28;20220;-70
2021/05/06 02:12:32;;;;;;;3.87;1.60;;;;;;;10.34;93.07;97634.53;5045677;28;20228;-70
2021/05/06 02:15:04;;;;;;;4.73;1.37;;;;;;;10.10;92.33;97625.34;5050720;28;20707;-71
2021/05/06 02:17:30;;;;;;;4.00;1.67;;;;;;;10.30;93.46;97628.81;5043547;28;20298;-71
2021/05/06 02:19:57;;;;;;;2.27;1.10;;;;;;;10.68;90.25;97632.41;5048943;28;20289;-70
2021/05/06 02:22:24;;;;;;;2.80;0.90;;;;;;;10.65;92.48;97618.66;5045750;28;20306;-71
2021/05/06 02:24:52;;;;;;;3.27;1.40;;;;;;;10.35;92.31;97622.88;5049991;28;20588;-71
2021/05/06 02:27:19;;;;;;;3.67;1.40;;;;;;;10.22;93.81;97622.88;5048014;28;20209;-70
2021/05/06 02:29:47;;;;;;;2.40;1.40;;;;;;;10.59;92.00;97612.31;5049645;28;20242;-71
2021/05/06 02:32:14;;;;;;;3.53;1.17;;;;;;;10.55;91.63;97612.97;5045214;28;20685;-70
2021/05/06 02:34:41;;;;;;;2.43;1.20;;;;;;;10.44;92.23;97613.59;5051025;28;20246;-70
2021/05/06 02:37:08;;;;;;;1.90;1.40;;;;;;;10.57;90.13;97610.88;5049888;28;20212;-71
2021/05/06 02:39:35;;;;;;;1.80;1.10;;;;;;;10.79;89.75;97612.22;5051140;28;20228;-71
2021/05/06 02:42:03;;;;;;;3.63;1.47;;;;;;;10.39;91.65;97619.56;5048709;28;20252;-70
2021/05/06 02:44:33;;;;;;;6.33;1.50;;;;;;;10.64;90.66;97617.84;5048527;28;20204;-72
2021/05/06 02:47:00;;;;;;;2.90;1.43;;;;;;;10.63;89.85;97618.88;5050982;28;20657;-71
2021/05/06 02:49:27;;;;;;;2.60;1.20;;;;;;;10.44;90.64;97611.75;5042215;28;20716;-71
2021/05/06 02:51:58;;;;;;;1.80;1.10;;;;;;;10.66;89.81;97617.63;5050126;28;20618;-71
2021/05/06 02:54:29;;;;;;;4.27;2.03;;;;;;;10.81;89.15;97610.19;5052185;28;20210;-72
2021/05/06 02:57:00;;;;;;;2.67;1.30;;;;;;;10.67;88.19;97613.94;5054682;28;20207;-70
2021/05/06 03:02:43;;;;;;;2.73;1.20;;;;;;;10.63;89.85;97611.91;5053325;28;20232;-70
2021/05/06 03:05:11;;;;;;;5.07;1.70;;;;;;;10.70;90.93;97617.00;5054201;28;20223;-70
2021/05/06 03:07:40;;;;;;;7.07;1.60;;;;;;;10.69;91.87;97611.84;5049006;28;20207;-71
2021/05/06 03:10:15;;;;;;;4.80;1.50;;;;;;;10.53;93.29;97620.34;5052328;28;20230;-70
2021/05/06 03:21:30;;;;;;;3.13;1.50;;;;;;;9.74;100.00;97616.94;5047599;28;20707;-71
2021/05/06 03:23:58;;;;;;;5.90;1.53;;;;;;;10.14;100.00;97623.91;5043371;28;20340;-70
2021/05/06 03:26:25;;;;;;;4.97;2.03;;;;;;;9.81;100.00;97616.94;5047355;28;20237;-71
2021/05/06 03:28:55;;;;;;;3.20;1.53;;;;;;;9.84;100.00;97592.56;5047969;28;20207;-70
2021/05/06 03:31:41;;;;;;;4.17;1.30;;;;;;;10.02;100.00;97574.91;5046389;28;20213;-71
2021/05/06 03:42:36;;;;;;;3.77;1.70;;;;;;;9.33;100.00;97571.03;5024824;28;20204;-70
2021/05/06 03:45:16;;;;;;;2.20;1.30;;;;;;;9.46;100.00;97570.22;5045949;28;20237;-70
2021/05/06 04:17:58;;;;;;;8.10;2.23;;;;;;;9.16;100.00;97537.84;5031223;28;20314;-66
2021/05/06 04:26:16;;;;;;;6.33;2.27;;;;;;;8.99;100.00;97533.91;5032336;28;20714;-66
2021/05/06 04:37:02;;;;;;;6.27;2.13;;;;;;;9.15;100.00;97520.22;5031055;28;20225;-67
2021/05/06 04:55:52;;;;;;;3.37;2.00;;;;;;;9.47;100.00;97522.06;5029370;28;20717;-66
2021/05/06 05:03:58;;;;;;;3.13;1.90;;;;;;;9.67;100.00;97527.38;5031616;28;20739;-65
2021/05/06 05:06:27;;;;;;;4.70;2.03;;;;;;;9.85;100.00;97525.69;5029972;28;20695;-65
2021/05/06 05:09:02;;;;;;;3.17;2.07;;;;;;;9.82;100.00;97525.31;5026705;28;20242;-66
2021/05/06 05:11:43;;;;;;;6.70;1.90;;;;;;;10.24;100.00;97514.97;5032226;28;20208;-65
2021/05/06 05:14:31;;;;;;;3.50;1.90;;;;;;;10.19;100.00;97513.97;5023673;28;20208;-65
2021/05/06 05:20:06;;;;;;;3.90;2.00;;;;;;;10.14;100.00;97511.94;5025946;28;20577;-66
2021/05/06 05:25:23;;;;;;;3.00;1.83;;;;;;;10.29;100.00;97501.81;5024917;28;20317;-66
2021/05/06 05:27:50;;;;;;;4.77;1.80;;;;;;;10.08;100.00;97511.94;5026538;28;20319;-66
2021/05/06 05:30:18;;;;;;;2.40;1.53;;;;;;;10.18;100.00;97508.84;5026640;28;20208;-66
2021/05/06 05:32:45;;;;;;;9.40;2.57;;;;;;;10.30;100.00;97502.66;5025302;28;20202;-66
2021/05/06 05:35:16;;;;;;;3.60;1.40;;;;;;;10.66;100.00;97490.34;5027179;28;20206;-66
2021/05/06 05:37:47;;;;;;;3.50;1.90;;;;;;;10.31;100.00;97485.63;5026203;28;20379;-70
2021/05/06 05:40:22;;;;;;;2.77;1.80;;;;;;;10.28;100.00;97492.19;5029725;28;20205;-71
2021/05/06 05:42:58;;;;;;;5.33;1.77;;;;;;;10.61;100.00;97481.38;5031143;28;20298;-68
2021/05/06 05:56:50;;;;;;;2.67;1.47;;;;;;;10.71;100.00;97487.84;4949105;28;20230;-69
2021/05/06 05:59:18;;;;;;;4.10;1.63;;;;;;;10.32;100.00;97496.09;5014003;28;20726;-69
2021/05/06 06:01:48;;;;;;;3.37;1.57;;;;;;;10.96;100.00;97487.94;5031854;28;20615;-72
2021/05/06 06:04:15;;;;;;;3.20;1.67;;;;;;;10.69;100.00;97491.78;5030186;28;20227;-71
2021/05/06 06:06:42;;;;;;;4.20;1.30;;;;;;;10.96;100.00;97493.28;5019138;28;20280;-69
2021/05/06 06:09:08;;;;;;;3.73;1.60;;;;;;;11.01;100.00;97488.91;5025818;28;20695;-77
2021/05/06 06:11:36;;;;;;;6.20;2.10;;;;;;;10.69;100.00;97491.78;5028331;28;20209;-68
2021/05/06 06:14:05;;;;;;;4.27;1.60;;;;;;;10.75;100.00;97497.09;5026932;28;20595;-68
2021/05/06 06:16:35;;;;;;;3.33;1.70;;;;;;;11.10;100.00;97502.81;5019709;28;20258;-68
2021/05/06 06:19:03;;;;;;;3.93;1.50;;;;;;;11.08;100.00;97497.69;5027209;28;20246;-67
2021/05/06 06:21:33;;;;;;;5.23;1.63;;;;;;;10.89;100.00;97495.16;5026027;28;20202;-71
2021/05/06 06:24:00;;;;;;;6.77;1.70;;;;;;;11.17;100.00;97493.72;5027230;28;20886;-65
2021/05/06 06:26:27;;;;;;;3.80;1.60;;;;;;;11.09;100.00;97503.84;5027343;28;20813;-65
2021/05/06 06:28:56;;;;;;;4.17;1.43;;;;;;;11.31;100.00;97487.25;5026543;28;20760;-66
2021/05/06 06:31:25;;;;;;;8.83;2.10;;;;;;;11.00;100.00;97487.28;5027915;28;20680;-65
2021/05/06 06:33:53;;;;;;;5.47;1.57;;;;;;;11.20;100.00;97479.09;5023560;28;20248;-65
2021/05/06 06:36:21;;;;;;;4.37;1.77;;;;;;;11.07;100.00;97473.88;5026275;28;20210;-71
2021/05/06 06:38:49;;;;;;;5.80;1.90;;;;;;;11.06;100.00;97475.72;5022223;28;20251;-66
2021/05/06 06:41:16;;;;;;;3.50;1.23;;;;;;;11.18;100.00;97466.00;5025615;28;20210;-66
2021/05/06 06:43:54;;;;;;;5.93;1.60;;;;;;;11.42;100.00;97457.13;5019918;28;20659;-65
2021/05/06 06:46:24;;;;;;;4.53;1.50;;;;;;;11.34;100.00;97461.94;5022308;28;20245;-65
2021/05/06 06:48:53;;;;;;;2.40;1.17;;;;;;;11.51;100.00;97455.81;5025014;28;20226;-71
2021/05/06 06:51:23;;;;;;;3.87;1.33;;;;;;;11.43;100.00;97452.63;5026477;28;20276;-67
2021/05/06 06:53:55;;;;;;;5.07;1.80;;;;;;;11.55;100.00;97454.34;5020121;28;20217;-66
2021/05/06 06:56:25;;;;;;;2.67;1.63;;;;;;;11.24;100.00;97450.94;5022097;28;20663;-66
2021/05/06 06:58:58;;;;;;;5.83;1.73;;;;;;;11.59;100.00;97452.09;5028811;28;20228;-67
2021/05/06 07:01:25;;;;;;;2.37;1.30;;;;;;;11.40;100.00;97461.88;5023388;28;20213;-66
2021/05/06 07:03:59;;;;;;;2.53;1.40;;;;;;;11.77;98.55;97461.97;5028224;28;20214;-66
2021/05/06 07:06:30;;;;;;;3.77;1.50;;;;;;;11.33;100.00;97465.66;5028397;28;20238;-68
2021/05/06 07:09:02;;;;;;;3.20;1.53;;;;;;;11.68;98.74;97457.94;5022953;28;20226;-67
2021/05/06 07:11:34;;;;;;;5.30;1.70;;;;;;;11.91;96.12;97458.94;5028972;28;20654;-67
2021/05/06 07:14:01;;;;;;;3.37;1.03;;;;;;;12.21;93.44;97446.44;5028835;28;20202;-67
2021/05/06 07:16:30;;;;;;;2.10;1.30;;;;;;;12.05;93.77;97451.59;5030471;28;20202;-66
2021/05/06 07:18:57;;;;;;;4.73;1.23;;;;;;;12.42;90.98;97451.34;5030292;28;20229;-68
2021/05/06 07:21:31;;;;;;;3.60;1.53;;;;;;;12.02;95.19;97458.22;5025750;28;20309;-67
2021/05/06 07:24:02;;;;;;;4.33;1.30;;;;;;;12.86;92.04;97458.94;5026787;28;20212;-67
2021/05/06 07:26:32;;;;;;;5.20;1.50;;;;;;;12.27;89.68;97451.72;5030594;28;20230;-65
2021/05/06 07:29:01;;;;;;;3.73;1.53;;;;;;;12.41;91.25;97451.56;5031457;28;20565;-67
2021/05/06 07:31:31;;;;;;;3.90;1.50;;;;;;;12.45;90.70;97458.91;5031297;28;20202;-66
2021/05/06 07:34:00;;;;;;;3.60;1.50;;;;;;;12.73;87.41;97461.84;5029445;28;20241;-68
2021/05/06 07:36:29;;;;;;;3.43;1.30;;;;;;;12.99;85.25;97456.13;5026021;28;20207;-67
2021/05/06 07:38:57;;;;;;;6.83;1.40;;;;;;;12.87;86.80;97449.06;5022078;28;20318;-68
2021/05/06 07:41:25;;;;;;;2.93;1.10;;;;;;;13.68;84.23;97458.84;5028573;28;20202;-67
2021/05/06 07:43:58;;;;;;;6.23;1.30;;;;;;;14.10;78.08;97471.09;5027091;28;20212;-67
2021/05/06 07:46:28;;;;;;;4.40;1.60;;;;;;;13.41;87.08;97451.50;5033240;28;20250;-65
2021/05/06 07:48:56;;;;;;;5.00;1.73;;;;;;;13.35;81.20;97465.84;5033484;28;20227;-66
2021/05/06 07:51:27;;;;;;;3.27;1.63;;;;;;;13.82;82.35;97452.22;5033743;28;20210;-66
2021/05/06 07:53:56;;;;;;;4.13;1.70;;;;;;;13.46;83.29;97448.94;5033040;28;20565;-66
2021/05/06 07:56:27;;;;;;;3.57;1.60;;;;;;;13.99;78.34;97460.38;5029743;28;20606;-66
2021/05/06 07:58:57;;;;;;;3.60;1.40;;;;;;;14.31;73.45;97462.44;5027548;28;20231;-66
2021/05/06 08:01:27;;;;;;;2.40;1.37;;;;;;;13.91;73.94;97455.34;5027058;28;20225;-67
2021/05/06 08:03:54;;;;;;;2.27;1.37;;;;;;;14.38;69.88;97463.09;5025188;28;20210;-66
2021/05/06 08:06:26;;;;;;;4.00;1.53;;;;;;;14.37;71.16;97469.53;5023000;28;20242;-66
2021/05/06 08:08:57;;;;;;;5.03;1.40;;;;;;;14.26;71.58;97469.56;5030495;28;20247;-66
2021/05/06 08:11:35;;;;;;;6.43;1.30;;;;;;;14.65;68.04;97468.75;5026509;28;20228;-68
2021/05/06 08:14:02;;;;;;;8.90;1.70;;;;;;;14.46;67.33;97469.97;5029588;28;20215;-66
2021/05/06 08:16:37;;;;;;;3.50;1.50;;;;;;;14.10;69.72;97465.72;5028682;28;20288;-67
2021/05/06 08:19:08;;;;;;;4.33;1.40;;;;;;;14.03;68.43;97458.84;5022924;28;20256;-67
2021/05/06 08:21:48;;;;;;;4.20;1.63;;;;;;;13.78;69.81;97456.41;5027371;28;20806;-67
2021/05/06 08:24:28;;;;;;;3.37;1.43;;;;;;;13.96;72.75;97447.41;5026306;28;20290;-67
2021/05/06 08:26:58;;;;;;;4.10;1.40;;;;;;;14.16;70.56;97447.84;5030554;28;20230;-67
2021/05/06 08:29:31;;;;;;;5.53;1.93;;;;;;;13.82;71.26;97449.53;5021034;28;20888;-67
2021/05/06 08:32:00;;;;;;;3.60;1.70;;;;;;;13.50;72.76;97442.91;5019874;28;20294;-67
2021/05/06 08:34:33;;;;;;;4.77;1.50;;;;;;;13.82;71.08;97446.06;5029986;28;20221;-67
2021/05/06 08:37:08;;;;;;;4.33;1.20;;;;;;;14.02;71.04;97433.06;5027114;28;20260;-67
2021/05/06 08:39:36;;;;;;;8.00;1.60;;;;;;;14.23;70.06;97438.63;5029635;28;20221;-67
2021/05/06 08:42:08;;;;;;;2.27;1.27;;;;;;;13.81;70.54;97437.19;5029452;28;20593;-67
2021/05/06 08:44:39;;;;;;;3.63;1.30;;;;;;;13.77;70.25;97435.22;5020841;28;20678;-68
2021/05/06 08:47:12;;;;;;;5.17;1.60;;;;;;;13.99;72.03;97433.53;5023205;28;20223;-68
2021/05/06 08:49:39;;;;;;;6.30;1.80;;;;;;;13.30;77.33;97426.34;5028934;28;20267;-68
2021/05/06 08:52:12;;;;;;;4.07;1.30;;;;;;;13.48;76.36;97428.09;5031022;28;20681;-67
2021/05/06 08:54:41;;;;;;;4.20;1.77;;;;;;;13.62;76.45;97435.66;5023602;28;20269;-68
2021/05/06 08:57:13;;;;;;;5.87;1.73;;;;;;;12.84;79.33;97426.25;5029216;28;20617;-66
2021/05/06 08:59:42;;;;;;;6.37;1.80;;;;;;;12.71;81.51;97420.28;5022965;28;20714;-65
2021/05/06 09:02:12;;;;;;;4.43;1.50;;;;;;;13.35;78.53;97426.47;5029688;28;20701;-67
2021/05/06 09:04:43;;;;;;;5.77;1.57;;;;;;;13.25;78.98;97420.88;5028170;28;20208;-66
2021/05/06 09:07:17;;;;;;;6.30;1.97;;;;;;;12.69;83.15;97423.16;5025249;28;20284;-66
2021/05/06 09:09:49;;;;;;;5.37;1.50;;;;;;;13.43;77.83;97431.47;5029613;28;20212;-67
2021/05/06 09:12:37;;;;;;;5.00;1.63;;;;;;;13.15;79.19;97430.50;5023813;28;20226;-66
2021/05/06 09:15:16;;;;;;;4.13;1.57;;;;;;;13.15;79.82;97419.78;5023761;28;20203;-67
2021/05/06 09:17:43;;;;;;;3.43;1.40;;;;;;;13.41;80.79;97425.53;5020887;28;20253;-67
2021/05/06 09:20:17;;;;;;;6.23;1.80;;;;;;;13.65;75.30;97426.34;5028079;28;20219;-67
2021/05/06 09:22:50;;;;;;;2.67;1.33;;;;;;;13.90;73.16;97437.63;5021867;28;20213;-67
2021/05/06 09:25:35;;;;;;;4.37;1.50;;;;;;;14.27;69.86;97433.59;5021844;28;20237;-67
2021/05/06 09:28:15;;;;;;;4.83;1.30;;;;;;;13.98;76.22;97423.88;5025292;28;20266;-68
2021/05/06 09:30:54;;;;;;;3.80;1.97;;;;;;;14.01;79.43;97421.53;5023264;28;20207;-67
2021/05/06 09:33:35;;;;;;;5.07;1.73;;;;;;;13.44;78.76;97417.03;5027623;28;20205;-66
2021/05/06 09:36:13;;;;;;;4.10;1.50;;;;;;;13.63;79.47;97421.22;5019386;28;20283;-67
2021/05/06 09:38:43;;;;;;;6.87;1.60;;;;;;;13.93;79.04;97421.06;5025148;28;20274;-66
2021/05/06 09:41:13;;;;;;;8.80;2.00;;;;;;;13.73;79.36;97424.13;5023841;28;20263;-68
2021/05/06 09:43:42;;;;;;;6.47;2.07;;;;;;;14.28;76.45;97419.16;5022215;28;20560;-66
2021/05/06 09:46:26;;;;;;;5.27;1.87;;;;;;;14.66;74.35;97417.50;5027861;28;20229;-67
2021/05/06 09:48:59;;;;;;;7.43;1.80;;;;;;;14.90;73.10;97418.97;5024796;28;20226;-68
2021/05/06 09:51:31;;;;;;;2.17;1.60;;;;;;;15.20;69.47;97419.50;5018192;28;20213;-68
2021/05/06 09:53:58;;;;;;;6.83;2.17;;;;;;;14.72;75.37;97413.00;5021196;28;20203;-67
2021/05/06 09:56:39;;;;;;;5.43;1.90;;;;;;;15.22;70.47;97419.25;5029925;28;20675;-68
2021/05/06 09:59:07;;;;;;;7.73;1.70;;;;;;;14.75;71.61;97413.34;5032990;28;20265;-68
2021/05/06 10:01:51;;;;;;;6.67;1.60;;;;;;;13.73;82.88;97399.19;5028800;28;20206;-69
2021/05/06 10:04:22;;;;;;;7.20;1.83;;;;;;;14.40;78.00;97398.44;5024692;28;20266;-66
2021/05/06 10:07:16;;;;;;;5.47;1.50;;;;;;;13.75;81.86;97405.13;5025143;28;20746;-67
2021/05/06 10:09:55;;;;;;;4.53;1.53;;;;;;;13.56;83.79;97398.25;5023529;28;20286;-68
2021/05/06 10:12:35;;;;;;;4.20;1.73;;;;;;;13.64;84.62;97400.59;5029298;28;20242;-69
2021/05/06 10:15:03;;;;;;;4.17;1.40;;;;;;;13.63;86.71;97391.72;5024734;28;20202;-68
2021/05/06 10:17:37;;;;;;;3.73;1.70;;;;;;;13.94;85.13;97394.00;5027275;28;20228;-70
2021/05/06 10:20:05;;;;;;;6.07;1.67;;;;;;;14.19;83.00;97393.72;5030626;28;20258;-68
2021/05/06 10:22:32;;;;;;;10.10;1.90;;;;;;;14.98;76.01;97398.97;5025635;28;20214;-70
2021/05/06 10:25:03;;;;;;;5.53;1.97;;;;;;;14.97;75.80;97391.97;5025518;28;20217;-68
2021/05/06 10:27:31;;;;;;;3.93;1.40;;;;;;;14.01;83.67;97383.97;5024554;28;20310;-68
2021/05/06 10:29:58;;;;;;;6.33;2.00;;;;;;;14.12;88.82;97374.22;5021216;28;20205;-67
2021/05/06 10:32:25;;;;;;;5.33;1.87;;;;;;;14.38;81.37;97392.53;5024941;28;20296;-67
2021/05/06 10:34:55;;;;;;;4.70;1.47;;;;;;;14.48;83.12;97373.91;5026714;28;20213;-69
2021/05/06 10:37:25;;;;;;;5.17;1.70;;;;;;;14.23;88.03;97378.81;5025542;28;20210;-69
2021/05/06 10:39:52;;;;;;;3.27;1.40;;;;;;;14.13;87.25;97373.19;5028334;28;20308;-66
2021/05/06 10:42:37;;;;;;;4.60;1.10;;;;;;;13.50;93.93;97367.03;5023279;28;20209;-68
2021/05/06 10:45:32;;;;;;;5.17;1.60;;;;;;;13.63;92.60;97377.50;5025280;28;20376;-69
2021/05/06 10:47:59;;;;;;;3.53;1.60;;;;;;;13.33;93.76;97371.47;5019992;28;20593;-72
2021/05/06 10:50:33;;;;;;;3.77;1.50;;;;;;;13.60;91.76;97369.94;5027310;28;20244;-70
2021/05/06 10:53:00;;;;;;;4.53;1.23;;;;;;;13.98;87.14;97359.47;5020521;28;20274;-69
2021/05/06 10:55:50;;;;;;;1.73;1.07;;;;;;;14.52;85.60;97356.25;5018079;28;20212;-65
2021/05/06 10:58:40;;;;;;;4.17;1.47;;;;;;;14.18;84.33;97365.25;5027342;28;20334;-67
2021/05/06 11:01:40;;;;;;;5.43;1.30;;;;;;;14.58;83.94;97355.31;5018772;28;20212;-67
2021/05/06 11:04:11;;;;;;;2.23;1.30;;;;;;;14.04;90.27;97342.44;5026524;28;20204;-67
2021/05/06 11:06:42;;;;;;;1.80;1.10;;;;;;;14.55;87.36;97345.03;5023445;28;20634;-66
2021/05/06 11:09:54;;;;;;;3.13;1.27;;;;;;;14.24;80.88;97354.38;5027183;28;20602;-67
2021/05/06 11:12:31;;;;;;;1.67;1.00;;;;;;;14.22;79.63;97345.78;5026289;28;20632;-66
2021/05/06 11:15:33;;;;;;;2.03;1.00;;;;;;;14.52;78.43;97346.34;5026096;28;20275;-65
2021/05/06 11:18:02;;;;;;;2.80;0.90;;;;;;;14.68;80.75;97337.47;5028501;28;20229;-66
2021/05/06 11:20:50;;;;;;;2.77;1.10;;;;;;;14.88;83.88;97326.25;5027727;28;20212;-66
2021/05/06 11:23:29;;;;;;;3.77;1.93;;;;;;;14.74;83.27;97325.75;5027677;28;20262;-66
2021/05/06 11:26:11;;;;;;;4.33;1.20;;;;;;;14.29;89.38;97318.78;5029396;28;20232;-65
2021/05/06 11:28:42;;;;;;;1.67;1.10;;;;;;;15.37;80.01;97323.56;5029414;28;20234;-66
2021/05/06 11:31:10;;;;;;;2.20;1.10;;;;;;;15.01;77.96;97326.75;5027831;28;20304;-66
2021/05/06 11:33:36;;;;;;;2.37;1.20;;;;;;;14.76;83.40;97306.72;5025979;28;20221;-67
2021/05/06 11:36:07;;;;;;;1.93;0.97;;;;;;;15.10;77.12;97322.56;5031297;28;20619;-66
2021/05/06 11:38:54;;;;;;;2.87;1.10;;;;;;;14.78;84.94;97292.00;5027786;28;20270;-66
2021/05/06 11:41:27;;;;;;;3.17;0.87;;;;;;;14.87;81.33;97295.91;5031320;28;20729;-67
2021/05/06 11:43:56;;;;;;;1.77;0.77;;;;;;;15.15;72.75;97309.22;5026587;28;20209;-67
2021/05/06 11:46:25;;;;;;;1.53;0.93;;;;;;;15.43;69.67;97297.53;5025498;28;20304;-67
2021/05/06 11:48:53;;;;;;;2.23;1.07;;;;;;;14.73;72.90;97291.09;5029543;28;20746;-67
2021/05/06 11:51:28;;;;;;;2.60;0.90;;;;;;;14.89;72.50;97299.16;5032299;28;20707;-67
2021/05/06 11:54:09;;;;;;;2.30;0.80;;;;;;;14.94;77.39;97287.69;5031346;28;20202;-65
2021/05/06 11:56:38;;;;;;;1.43;0.70;;;;;;;14.65;76.61;97280.75;5031020;28;20204;-66
2021/05/06 11:59:07;;;;;;;3.80;0.67;;;;;;;14.28;77.46;97275.03;5028807;28;20230;-65
2021/05/06 12:01:34;;;;;;;1.07;0.60;;;;;;;15.13;69.48;97283.66;5029889;28;20214;-69
2021/05/06 12:04:01;;;;;;;1.37;0.80;;;;;;;15.43;68.98;97286.78;5028168;28;20206;-66
2021/05/06 12:06:30;;;;;;;2.63;1.00;;;;;;;14.64;74.13;97265.72;5027420;28;20314;-67
2021/05/06 12:08:57;;;;;;;1.30;0.60;;;;;;;15.15;69.97;97265.41;5028606;28;20308;-66
2021/05/06 12:11:36;;;;;;;1.90;0.70;;;;;;;14.82;72.61;97260.91;5029671;28;20212;-66
2021/05/06 12:14:03;;;;;;;1.63;0.67;;;;;;;14.51;73.02;97249.91;5029322;28;20202;-67
2021/05/06 12:16:30;;;;;;;1.33;0.77;;;;;;;15.12;71.44;97249.78;5025646;28;20205;-66
2021/05/06 12:19:04;;;;;;;1.43;0.60;;;;;;;15.50;65.70;97253.28;5041427;28;20296;-67
2021/05/06 12:21:37;;;;;;;2.03;0.53;;;;;;;15.59;65.79;97246.41;5033240;28;20210;-67
2021/05/06 12:24:04;;;;;;;2.20;0.50;;;;;;;15.53;67.58;97238.53;5027980;28;20210;-67
2021/05/06 12:26:31;;;;;;;2.43;0.93;;;;;;;15.39;66.94;97227.34;5030406;28;20583;-67
2021/05/06 12:28:58;;;;;;;0.60;0.57;;;;;;;14.69;74.89;97212.09;5029450;28;20717;-67
2021/05/06 12:31:26;;;;;;;0.97;0.80;;;;;;;14.76;70.60;97213.53;5027605;28;20202;-65
2021/05/06 12:33:52;;;;;;;1.10;0.80;;;;;;;14.84;73.46;97215.78;5024994;28;20216;-66
2021/05/06 12:36:20;;;;;;;1.40;0.50;;;;;;;15.25;73.58;97201.84;5030126;28;20217;-67
2021/05/06 12:38:49;;;;;;;0.70;0.60;;;;;;;15.27;73.61;97196.22;5024243;28;20587;-67
2021/05/06 12:41:17;;;;;;;0.77;0.50;;;;;;;14.69;77.34;97186.03;5031830;28;20293;-67
2021/05/06 12:43:49;;;;;;;1.97;0.70;;;;;;;15.07;77.85;97182.53;5029698;28;20232;-67
2021/05/06 12:46:24;;;;;;;1.23;0.80;;;;;;;14.56;84.24;97174.81;5031075;28;20260;-67
2021/05/06 12:48:59;;;;;;;1.30;0.70;;;;;;;14.45;85.23;97171.19;5031126;28;20278;-64
2021/05/06 12:51:31;;;;;;;1.30;0.90;;;;;;;14.66;86.64;97172.28;5031393;28;20663;-66
2021/05/06 12:54:07;;;;;;;2.17;1.07;;;;;;;14.23;89.13;97164.13;5029561;28;20209;-66
2021/05/06 12:56:37;;;;;;;1.33;0.70;;;;;;;14.27;92.66;97165.22;5029630;28;20207;-67
2021/05/06 12:59:23;;;;;;;2.00;1.37;;;;;;;14.22;98.73;97157.09;5027894;28;20322;-65
2021/05/06 13:01:50;;;;;;;2.07;0.90;;;;;;;14.39;98.70;97158.72;5028401;28;20208;-66
2021/05/06 13:04:17;;;;;;;1.83;0.90;;;;;;;14.23;100.00;97166.78;5027729;28;20210;-67
2021/05/06 13:06:44;;;;;;;0.97;0.80;;;;;;;14.19;100.00;97166.41;5028938;28;20256;-66
2021/05/06 13:09:15;;;;;;;2.03;1.00;;;;;;;14.20;100.00;97167.28;5023573;28;20239;-65
2021/05/06 13:11:42;;;;;;;3.37;1.07;;;;;;;14.06;100.00;97166.75;5027835;28;20200;-66
2021/05/06 13:14:09;;;;;;;2.40;1.40;;;;;;;13.89;100.00;97170.47;5029118;28;20828;-68
2021/05/06 13:16:42;;;;;;;2.43;1.07;;;;;;;13.68;100.00;97177.31;5032132;28;20206;-67
2021/05/06 13:22:05;;;;;;;3.83;1.10;;;;;;;12.71;100.00;97169.41;5024459;28;20257;-66
2021/05/06 13:24:40;;;;;;;3.00;1.53;;;;;;;12.88;100.00;97155.06;5029587;28;20233;-67
2021/05/06 13:27:13;;;;;;;1.63;1.00;;;;;;;13.52;100.00;97150.50;5023214;28;20632;-67
2021/05/06 13:29:48;;;;;;;4.20;0.90;;;;;;;14.21;100.00;97140.19;5026171;28;20241;-66
2021/05/06 13:32:15;;;;;;;2.70;1.23;;;;;;;14.32;100.00;97139.28;5027567;28;20207;-66
2021/05/06 13:34:54;;;;;;;1.70;1.10;;;;;;;14.35;100.00;97143.34;5023409;28;20264;-67
2021/05/06 13:37:21;;;;;;;2.80;1.30;;;;;;;13.83;100.00;97136.56;5024779;28;20208;-66
2021/05/06 13:39:48;;;;;;;3.73;1.40;;;;;;;13.08;100.00;97121.75;5024861;28;20284;-66
2021/05/06 13:42:18;;;;;;;3.53;1.30;;;;;;;13.19;100.00;97111.00;5027995;28;20214;-66
2021/05/06 13:44:44;;;;;;;2.67;1.23;;;;;;;13.39;100.00;97106.03;5026457;28;20260;-66
2021/05/06 13:47:11;;;;;;;3.67;1.57;;;;;;;12.93;100.00;97105.34;5027652;28;20249;-66
2021/05/06 13:49:38;;;;;;;3.87;1.30;;;;;;;12.83;100.00;97098.75;5027732;28;20210;-71
2021/05/06 13:52:05;;;;;;;1.83;1.33;;;;;;;12.86;100.00;97094.78;5026807;28;20659;-68
2021/05/06 13:54:33;;;;;;;3.97;2.17;;;;;;;12.51;100.00;97093.25;5028834;28;20219;-67
2021/05/06 13:57:00;;;;;;;3.13;1.60;;;;;;;12.77;100.00;97078.28;5027835;28;20675;-69
2021/05/06 13:59:27;;;;;;;3.37;1.63;;;;;;;12.68;100.00;97075.38;5023769;28;20742;-71
2021/05/06 14:01:55;;;;;;;3.63;2.00;;;;;;;12.93;100.00;97071.38;5021896;28;20208;-72
2021/05/06 14:04:22;;;;;;;2.80;1.47;;;;;;;13.15;100.00;97060.81;5029609;28;20293;-69
2021/05/06 14:06:49;;;;;;;2.63;1.70;;;;;;;12.73;100.00;97064.78;5029806;28;20325;-69
2021/05/06 14:09:18;;;;;;;3.60;1.50;;;;;;;12.66;100.00;97064.13;5024846;28;20234;-66
2021/05/06 14:11:46;;;;;;;3.80;2.03;;;;;;;12.34;100.00;97050.31;5024750;28;20210;-67
2021/05/06 14:14:13;;;;;;;3.13;1.57;;;;;;;12.27;100.00;97049.66;5025138;28;20221;-65
2021/05/06 14:16:41;;;;;;;4.13;1.93;;;;;;;12.14;100.00;97041.84;5029162;28;20209;-70
2021/05/06 14:19:09;;;;;;;4.07;2.10;;;;;;;12.11;100.00;97042.31;5023954;28;20384;-68
2021/05/06 14:21:36;;;;;;;2.37;1.50;;;;;;;13.08;100.00;97034.19;5029308;28;20365;-66
2021/05/06 14:24:04;;;;;;;2.57;1.70;;;;;;;12.44;100.00;97029.94;5024022;28;20299;-70
2021/05/06 14:26:31;;;;;;;4.30;1.73;;;;;;;12.54;100.00;97035.50;5023597;28;20279;-65
2021/05/06 14:28:58;;;;;;;3.50;1.50;;;;;;;12.41;100.00;97028.81;5026882;28;20226;-69
2021/05/06 14:31:25;;;;;;;4.43;1.33;;;;;;;13.37;100.00;97026.94;5030240;28;20248;-71
2021/05/06 14:33:52;;;;;;;2.23;1.60;;;;;;;13.53;100.00;97018.09;5027645;28;20215;-67
2021/05/06 14:36:19;;;;;;;3.73;1.60;;;;;;;12.76;100.00;97016.13;5028061;28;20202;-68